createdAt,value
2023-02-27T00:00:00.620Z,3.0
2023-02-27T00:01:00.878Z,3.0
2023-02-27T00:02:00.589Z,3.0
2023-02-27T00:03:00.645Z,3.0
2023-02-27T00:04:00.625Z,3.0
2023-02-27T00:05:00.628Z,3.2
2023-02-27T00:06:00.542Z,3.2
2023-02-27T00:07:00.579Z,3.2
2023-02-27T00:08:00.563Z,3.2
2023-02-27T00:09:00.906Z,3.2
2023-02-27T00:10:00.604Z,3.2
2023-02-27T00:11:00.526Z,3.2
2023-02-27T00:12:00.538Z,3.2
2023-02-27T00:13:00.557Z,3.2
2023-02-27T00:14:00.547Z,3.2
2023-02-27T00:15:00.555Z,3.2
2023-02-27T00:16:00.690Z,3.2
2023-02-27T00:17:00.535Z,3.2
2023-02-27T00:18:00.562Z,3.2
2023-02-27T00:19:00.580Z,3.2
2023-02-27T00:20:00.976Z,3.2
2023-02-27T00:21:00.609Z,3.2
2023-02-27T00:22:00.586Z,3.2
2023-02-27T00:23:00.533Z,3.2
2023-02-27T00:24:00.560Z,3.2
2023-02-27T00:25:00.620Z,3.5
2023-02-27T00:26:00.565Z,3.5
2023-02-27T00:27:00.538Z,3.5
2023-02-27T00:28:00.564Z,3.5
2023-02-27T00:29:00.560Z,3.5
2023-02-27T00:30:00.620Z,3.5
2023-02-27T00:31:00.742Z,3.5
2023-02-27T00:32:00.651Z,3.5
2023-02-27T00:33:00.702Z,3.5
2023-02-27T00:34:00.792Z,3.5
2023-02-27T00:35:00.569Z,3.5
2023-02-27T00:36:01.151Z,3.5
2023-02-27T00:37:00.545Z,3.5
2023-02-27T00:38:01.008Z,3.5
2023-02-27T00:39:00.545Z,3.5
2023-02-27T00:40:00.915Z,3.5
2023-02-27T00:41:00.704Z,3.5
2023-02-27T00:42:00.544Z,3.5
2023-02-27T00:43:01.976Z,3.5
2023-02-27T00:44:00.525Z,3.5
2023-02-27T00:45:00.762Z,3.3
2023-02-27T00:46:00.555Z,3.3
2023-02-27T00:47:00.577Z,3.3
2023-02-27T00:48:00.528Z,3.3
2023-02-27T00:49:00.544Z,3.3
2023-02-27T00:50:00.850Z,3.3
2023-02-27T00:51:00.719Z,3.3
2023-02-27T00:52:00.573Z,3.3
2023-02-27T00:53:00.540Z,3.3
2023-02-27T00:54:00.559Z,3.3
2023-02-27T00:55:00.525Z,3.3
2023-02-27T00:56:00.537Z,3.3
2023-02-27T00:57:00.654Z,3.3
2023-02-27T00:58:00.525Z,3.3
2023-02-27T00:59:00.524Z,3.3
2023-02-27T01:00:00.570Z,3.3
2023-02-27T01:01:00.651Z,3.3
2023-02-27T01:02:00.560Z,3.3
2023-02-27T01:03:00.559Z,3.3
2023-02-27T01:04:00.612Z,3.3
2023-02-27T01:05:00.579Z,3.7
2023-02-27T01:06:00.539Z,3.7
2023-02-27T01:07:00.620Z,3.7
2023-02-27T01:08:00.556Z,3.7
2023-02-27T01:09:00.781Z,3.7
2023-02-27T01:10:00.553Z,3.7
2023-02-27T01:11:00.656Z,3.7
2023-02-27T01:12:00.576Z,3.7
2023-02-27T01:13:00.564Z,3.7
2023-02-27T01:14:00.965Z,3.7
2023-02-27T01:15:00.559Z,3.7
2023-02-27T01:16:00.664Z,3.7
2023-02-27T01:17:00.630Z,3.7
2023-02-27T01:18:00.547Z,3.7
2023-02-27T01:19:00.536Z,3.7
2023-02-27T01:20:00.815Z,3.7
2023-02-27T01:21:00.586Z,3.7
2023-02-27T01:22:00.576Z,3.7
2023-02-27T01:23:00.576Z,3.7
2023-02-27T01:24:00.597Z,3.7
2023-02-27T01:25:00.800Z,3.6
2023-02-27T01:26:01.077Z,3.6
2023-02-27T01:27:00.560Z,3.6
2023-02-27T01:28:00.573Z,3.6
2023-02-27T01:29:00.570Z,3.6
2023-02-27T01:30:00.784Z,3.6
2023-02-27T01:31:00.742Z,3.6
2023-02-27T01:32:00.831Z,3.6
2023-02-27T01:33:00.542Z,3.6
2023-02-27T01:34:00.546Z,3.6
2023-02-27T01:35:00.574Z,3.6
2023-02-27T01:36:00.607Z,3.6
2023-02-27T01:37:00.575Z,3.6
2023-02-27T01:38:00.817Z,3.6
2023-02-27T01:39:00.543Z,3.6
2023-02-27T01:40:00.869Z,3.6
2023-02-27T01:41:00.594Z,3.6
2023-02-27T01:42:00.533Z,3.6
2023-02-27T01:43:00.542Z,3.6
2023-02-27T01:44:03.184Z,3.6
2023-02-27T01:45:01.562Z,3.6
2023-02-27T01:46:00.642Z,3.6
2023-02-27T01:47:00.567Z,3.6
2023-02-27T01:48:03.895Z,3.6
2023-02-27T01:49:06.120Z,3.6
2023-02-27T01:50:00.601Z,3.6
2023-02-27T01:51:02.621Z,3.6
2023-02-27T01:52:04.016Z,3.6
2023-02-27T01:53:01.009Z,3.6
2023-02-27T01:54:01.682Z,3.6
2023-02-27T01:55:01.449Z,3.6
2023-02-27T01:56:04.864Z,3.6
2023-02-27T01:57:00.586Z,3.6
2023-02-27T01:58:00.602Z,3.6
2023-02-27T01:59:02.051Z,3.6
2023-02-27T02:00:00.777Z,3.6
2023-02-27T02:01:00.681Z,3.6
2023-02-27T02:02:02.275Z,3.6
2023-02-27T02:03:10.492Z,3.6
2023-02-27T02:04:10.487Z,3.6
2023-02-27T02:05:00.840Z,3.6
2023-02-27T02:06:01.515Z,3.6
2023-02-27T02:07:02.173Z,3.6
2023-02-27T02:08:01.267Z,3.6
2023-02-27T02:09:01.533Z,3.6
2023-02-27T02:10:01.207Z,3.6
2023-02-27T02:11:00.961Z,3.6
2023-02-27T02:12:00.650Z,3.6
2023-02-27T02:13:01.113Z,3.6
2023-02-27T02:14:00.975Z,3.6
2023-02-27T02:15:00.972Z,3.6
2023-02-27T02:16:10.467Z,3.6
2023-02-27T02:17:03.807Z,3.6
2023-02-27T02:18:10.490Z,3.6
2023-02-27T02:19:10.538Z,3.6
2023-02-27T02:20:10.465Z,3.6
2023-02-27T02:21:10.522Z,3.6
2023-02-27T02:22:10.488Z,3.6
2023-02-27T02:23:01.642Z,3.6
2023-02-27T02:24:07.979Z,3.6
2023-02-27T02:25:12.456Z,4.0
2023-02-27T02:26:01.639Z,4.0
2023-02-27T02:27:10.494Z,4.0
2023-02-27T02:28:10.495Z,4.0
2023-02-27T02:29:03.849Z,4.0
2023-02-27T02:30:10.486Z,4.0
2023-02-27T02:31:10.615Z,4.0
2023-02-27T02:32:08.004Z,4.0
2023-02-27T02:33:01.516Z,4.0
2023-02-27T02:34:10.499Z,4.0
2023-02-27T02:35:00.539Z,4.0
2023-02-27T02:36:10.491Z,4.0
2023-02-27T02:37:10.480Z,4.0
2023-02-27T02:38:10.490Z,4.0
2023-02-27T02:39:06.862Z,4.0
2023-02-27T02:40:10.499Z,4.0
2023-02-27T02:41:10.489Z,4.0
2023-02-27T02:42:03.593Z,4.0
2023-02-27T02:43:00.525Z,4.0
2023-02-27T02:44:07.003Z,4.0
2023-02-27T02:45:10.627Z,3.8
2023-02-27T02:46:06.871Z,3.8
2023-02-27T02:47:10.498Z,3.8
2023-02-27T02:48:00.524Z,3.8
2023-02-27T02:49:05.476Z,3.8
2023-02-27T02:50:08.118Z,3.8
2023-02-27T02:51:09.182Z,3.8
2023-02-27T02:52:05.424Z,3.8
2023-02-27T02:53:00.508Z,3.8
2023-02-27T02:54:05.649Z,3.8
2023-02-27T02:55:05.355Z,3.8
2023-02-27T02:56:07.933Z,3.8
2023-02-27T02:57:00.514Z,3.8
2023-02-27T02:58:05.778Z,3.8
2023-02-27T02:59:05.641Z,3.8
2023-02-27T03:00:10.505Z,3.8
2023-02-27T03:01:10.515Z,3.8
2023-02-27T03:02:10.456Z,3.8
2023-02-27T03:03:10.363Z,3.8
2023-02-27T03:04:04.936Z,3.6
2023-02-27T03:05:04.341Z,3.6
2023-02-27T03:06:05.523Z,3.6
2023-02-27T03:07:03.981Z,3.6
2023-02-27T03:08:04.394Z,3.6
2023-02-27T03:09:06.785Z,3.6
2023-02-27T03:10:03.962Z,3.6
2023-02-27T03:11:02.121Z,3.6
2023-02-27T03:12:03.663Z,3.6
2023-02-27T03:13:04.145Z,3.6
2023-02-27T03:14:07.014Z,3.6
2023-02-27T03:15:05.097Z,3.6
2023-02-27T03:16:06.670Z,3.6
2023-02-27T03:17:05.459Z,3.6
2023-02-27T03:18:05.451Z,3.6
2023-02-27T03:19:00.511Z,3.6
2023-02-27T03:20:03.336Z,3.6
2023-02-27T03:21:03.454Z,3.6
2023-02-27T03:22:03.484Z,3.6
2023-02-27T03:23:04.178Z,3.6
2023-02-27T03:24:03.552Z,4.2
2023-02-27T03:25:01.790Z,4.2
2023-02-27T03:26:02.002Z,4.2
2023-02-27T03:27:01.526Z,4.2
2023-02-27T03:28:05.561Z,4.2
2023-02-27T03:29:03.233Z,4.2
2023-02-27T03:30:10.511Z,4.2
2023-02-27T03:31:05.389Z,4.2
2023-02-27T03:32:07.597Z,4.2
2023-02-27T03:33:07.164Z,4.2
2023-02-27T03:34:05.941Z,4.2
2023-02-27T03:35:01.404Z,4.2
2023-02-27T03:36:07.084Z,4.2
2023-02-27T03:37:00.501Z,4.2
2023-02-27T03:38:06.046Z,4.2
2023-02-27T03:39:08.947Z,4.2
2023-02-27T03:40:00.524Z,4.2
2023-02-27T03:41:00.498Z,4.2
2023-02-27T03:42:07.873Z,4.2
2023-02-27T03:43:10.451Z,4.2
2023-02-27T03:44:10.455Z,3.6
2023-02-27T03:45:03.769Z,3.6
2023-02-27T03:46:06.645Z,3.6
2023-02-27T03:47:00.740Z,3.6
2023-02-27T03:48:01.528Z,3.6
2023-02-27T03:49:00.805Z,3.6
2023-02-27T03:50:00.529Z,3.6
2023-02-27T03:51:00.667Z,3.6
2023-02-27T03:52:00.575Z,3.6
2023-02-27T03:53:02.562Z,3.6
2023-02-27T03:54:03.798Z,3.6
2023-02-27T03:55:03.924Z,3.6
2023-02-27T03:56:02.427Z,3.6
2023-02-27T03:57:03.426Z,3.6
2023-02-27T03:58:00.715Z,3.6
2023-02-27T03:59:00.584Z,3.6
2023-02-27T04:00:00.828Z,3.6
2023-02-27T04:01:00.586Z,3.6
2023-02-27T04:02:01.742Z,3.6
2023-02-27T04:03:01.262Z,3.6
2023-02-27T04:04:03.781Z,4.0
2023-02-27T04:05:00.560Z,4.0
2023-02-27T04:06:00.580Z,4.0
2023-02-27T04:07:10.451Z,4.0
2023-02-27T04:08:10.452Z,4.0
2023-02-27T04:09:05.737Z,4.0
2023-02-27T04:10:10.489Z,4.0
2023-02-27T04:11:10.474Z,4.0
2023-02-27T04:12:09.957Z,4.0
2023-02-27T04:13:03.791Z,4.0
2023-02-27T04:14:10.457Z,4.0
2023-02-27T04:15:00.534Z,4.0
2023-02-27T04:16:10.508Z,4.0
2023-02-27T04:17:07.843Z,4.0
2023-02-27T04:18:09.513Z,4.0
2023-02-27T04:19:10.479Z,4.0
2023-02-27T04:20:10.504Z,4.0
2023-02-27T04:21:03.783Z,4.0
2023-02-27T04:22:07.297Z,4.0
2023-02-27T04:23:10.483Z,4.0
2023-02-27T04:24:10.454Z,4.1
2023-02-27T04:25:03.774Z,4.1
2023-02-27T04:26:10.478Z,4.1
2023-02-27T04:27:01.546Z,4.1
2023-02-27T04:28:10.491Z,4.1
2023-02-27T04:29:03.798Z,4.1
2023-02-27T04:30:01.536Z,4.1
2023-02-27T04:31:08.519Z,4.1
2023-02-27T04:32:04.209Z,4.1
2023-02-27T04:33:10.486Z,4.1
2023-02-27T04:34:10.040Z,4.1
2023-02-27T04:35:10.471Z,4.1
2023-02-27T04:36:05.888Z,4.1
2023-02-27T04:37:00.510Z,4.1
2023-02-27T04:38:06.151Z,4.1
2023-02-27T04:39:05.221Z,4.1
2023-02-27T04:40:03.546Z,4.1
2023-02-27T04:41:04.624Z,4.1
2023-02-27T04:42:02.823Z,4.1
2023-02-27T04:43:03.203Z,4.1
2023-02-27T04:44:02.018Z,4.0
2023-02-27T04:45:03.209Z,4.0
2023-02-27T04:46:02.267Z,4.0
2023-02-27T04:47:02.890Z,4.0
2023-02-27T04:48:04.461Z,4.0
2023-02-27T04:49:07.622Z,4.0
2023-02-27T04:50:06.320Z,4.0
2023-02-27T04:51:06.126Z,4.0
2023-02-27T04:52:05.823Z,4.0
2023-02-27T04:53:05.078Z,4.0
2023-02-27T04:54:05.198Z,4.0
2023-02-27T04:55:03.989Z,4.0
2023-02-27T04:56:03.296Z,4.0
2023-02-27T04:57:03.566Z,4.0
2023-02-27T04:58:04.320Z,4.0
2023-02-27T04:59:02.761Z,4.0
2023-02-27T05:00:02.496Z,4.0
2023-02-27T05:01:03.080Z,4.0
2023-02-27T05:02:05.391Z,4.0
2023-02-27T05:03:05.380Z,4.0
2023-02-27T05:04:02.056Z,4.0
2023-02-27T05:05:03.042Z,4.0
2023-02-27T05:06:01.425Z,4.0
2023-02-27T05:07:02.563Z,4.0
2023-02-27T05:08:02.753Z,4.0
2023-02-27T05:09:03.788Z,4.0
2023-02-27T05:10:03.013Z,4.0
2023-02-27T05:11:05.979Z,4.0
2023-02-27T05:12:02.812Z,4.0
2023-02-27T05:13:04.276Z,4.0
2023-02-27T05:14:07.069Z,4.0
2023-02-27T05:15:04.472Z,4.0
2023-02-27T05:16:07.861Z,4.0
2023-02-27T05:17:04.702Z,4.0
2023-02-27T05:18:02.336Z,4.0
2023-02-27T05:19:01.507Z,4.0
2023-02-27T05:20:01.001Z,4.0
2023-02-27T05:21:07.417Z,4.0
2023-02-27T05:22:10.465Z,4.0
2023-02-27T05:23:10.461Z,4.0
2023-02-27T05:24:00.536Z,3.9
2023-02-27T05:25:05.086Z,3.9
2023-02-27T05:26:07.468Z,3.9
2023-02-27T05:27:09.532Z,3.9
2023-02-27T05:28:03.850Z,3.9
2023-02-27T05:29:07.000Z,3.9
2023-02-27T05:30:03.543Z,3.9
2023-02-27T05:31:03.833Z,3.9
2023-02-27T05:32:10.613Z,3.9
2023-02-27T05:33:10.492Z,3.9
2023-02-27T05:34:10.461Z,3.9
2023-02-27T05:35:01.526Z,3.9
2023-02-27T05:36:10.534Z,3.9
2023-02-27T05:37:02.349Z,3.9
2023-02-27T05:38:10.492Z,3.9
2023-02-27T05:39:03.395Z,3.9
2023-02-27T05:40:03.165Z,3.9
2023-02-27T05:41:04.673Z,3.9
2023-02-27T05:42:03.540Z,3.9
2023-02-27T05:43:07.957Z,3.9
2023-02-27T05:44:10.498Z,4.1
2023-02-27T05:45:10.458Z,4.1
2023-02-27T05:46:04.483Z,4.1
2023-02-27T05:47:05.313Z,4.1
2023-02-27T05:48:04.805Z,4.1
2023-02-27T05:49:03.719Z,4.1
2023-02-27T05:50:04.689Z,4.1
2023-02-27T05:51:01.882Z,4.1
2023-02-27T05:52:03.506Z,4.1
2023-02-27T05:53:03.087Z,4.1
2023-02-27T05:54:05.441Z,4.1
2023-02-27T05:55:03.520Z,4.1
2023-02-27T05:56:03.202Z,4.1
2023-02-27T05:57:01.463Z,4.1
2023-02-27T05:58:00.530Z,4.1
2023-02-27T05:59:05.280Z,4.1
2023-02-27T06:00:01.508Z,4.1
2023-02-27T06:01:03.193Z,4.1
2023-02-27T06:02:00.687Z,4.1
2023-02-27T06:03:00.657Z,4.1
2023-02-27T06:04:01.623Z,4.1
2023-02-27T06:05:00.528Z,4.1
2023-02-27T06:06:02.595Z,4.1
2023-02-27T06:07:00.874Z,4.1
2023-02-27T06:08:00.540Z,4.1
2023-02-27T06:09:00.538Z,4.1
2023-02-27T06:10:00.713Z,4.1
2023-02-27T06:11:00.533Z,4.1
2023-02-27T06:12:00.579Z,4.1
2023-02-27T06:13:00.534Z,4.1
2023-02-27T06:14:00.608Z,4.1
2023-02-27T06:15:00.580Z,4.1
2023-02-27T06:16:00.580Z,4.1
2023-02-27T06:17:00.604Z,4.1
2023-02-27T06:18:00.569Z,4.1
2023-02-27T06:19:00.550Z,4.1
2023-02-27T06:20:00.686Z,4.1
2023-02-27T06:21:00.559Z,4.1
2023-02-27T06:22:00.536Z,4.1
2023-02-27T06:23:00.625Z,4.1
2023-02-27T06:24:00.550Z,4.0
2023-02-27T06:25:00.692Z,4.0
2023-02-27T06:26:00.576Z,4.0
2023-02-27T06:27:00.579Z,4.0
2023-02-27T06:28:00.576Z,4.0
2023-02-27T06:29:00.563Z,4.0
2023-02-27T06:30:00.528Z,4.0
2023-02-27T06:31:00.592Z,4.0
2023-02-27T06:32:00.576Z,4.0
2023-02-27T06:33:00.712Z,4.0
2023-02-27T06:34:00.525Z,4.0
2023-02-27T06:35:00.564Z,4.0
2023-02-27T06:36:00.596Z,4.0
2023-02-27T06:37:04.084Z,4.0
2023-02-27T06:38:00.519Z,4.0
2023-02-27T06:39:00.616Z,4.0
2023-02-27T06:40:00.576Z,4.0
2023-02-27T06:41:00.528Z,4.0
2023-02-27T06:42:00.570Z,4.0
2023-02-27T06:43:00.522Z,3.7
2023-02-27T06:44:00.549Z,3.7
2023-02-27T06:45:00.575Z,3.7
2023-02-27T06:46:00.626Z,3.7
2023-02-27T06:47:00.547Z,3.7
2023-02-27T06:48:00.540Z,3.7
2023-02-27T06:49:00.548Z,3.7
2023-02-27T06:50:00.581Z,3.7
2023-02-27T06:51:00.551Z,3.7
2023-02-27T06:52:00.562Z,3.7
2023-02-27T06:53:00.566Z,3.7
2023-02-27T06:54:00.575Z,3.7
2023-02-27T06:55:00.552Z,3.7
2023-02-27T06:56:00.573Z,3.7
2023-02-27T06:57:00.527Z,3.7
2023-02-27T06:58:00.554Z,3.7
2023-02-27T06:59:00.670Z,3.7
2023-02-27T07:00:00.620Z,3.7
2023-02-27T07:01:00.535Z,3.7
2023-02-27T07:02:00.594Z,3.7
2023-02-27T07:03:00.574Z,3.7
2023-02-27T07:04:00.553Z,3.7
2023-02-27T07:05:00.610Z,3.7
2023-02-27T07:06:00.819Z,3.7
2023-02-27T07:07:32.433Z,3.7
2023-02-27T07:08:00.942Z,3.7
2023-02-27T07:09:02.433Z,3.7
2023-02-27T07:10:00.528Z,3.7
2023-02-27T07:11:00.592Z,3.7
2023-02-27T07:12:00.953Z,3.7
2023-02-27T07:13:00.524Z,3.7
2023-02-27T07:14:00.641Z,3.7
2023-02-27T07:15:00.570Z,3.7
2023-02-27T07:16:00.599Z,3.7
2023-02-27T07:17:00.596Z,3.7
2023-02-27T07:18:00.529Z,3.7
2023-02-27T07:19:00.528Z,3.7
2023-02-27T07:20:00.549Z,3.7
2023-02-27T07:21:00.635Z,3.7
2023-02-27T07:22:00.540Z,3.7
2023-02-27T07:23:00.718Z,3.8
2023-02-27T07:24:00.537Z,3.8
2023-02-27T07:25:00.609Z,3.8
2023-02-27T07:26:00.567Z,3.8
2023-02-27T07:27:00.599Z,3.8
2023-02-27T07:28:00.524Z,3.8
2023-02-27T07:29:00.604Z,3.8
2023-02-27T07:30:00.584Z,3.8
2023-02-27T07:31:00.765Z,3.8
2023-02-27T07:32:00.833Z,3.8
2023-02-27T07:33:00.517Z,3.8
2023-02-27T07:34:00.593Z,3.8
2023-02-27T07:35:00.527Z,3.8
2023-02-27T07:36:00.641Z,3.8
2023-02-27T07:37:00.520Z,3.8
2023-02-27T07:38:00.521Z,3.8
2023-02-27T07:39:00.536Z,3.8
2023-02-27T07:40:00.641Z,3.8
2023-02-27T07:41:00.537Z,3.8
2023-02-27T07:42:00.562Z,3.8
2023-02-27T07:43:00.548Z,4.2
2023-02-27T07:44:00.790Z,4.2
2023-02-27T07:47:00.531Z,4.2
2023-02-27T07:48:00.765Z,4.2
2023-02-27T07:49:00.581Z,4.2
2023-02-27T07:50:00.609Z,4.2
2023-02-27T07:51:00.629Z,4.2
2023-02-27T07:52:00.592Z,4.2
2023-02-27T07:53:00.618Z,4.2
2023-02-27T07:54:00.573Z,4.2
2023-02-27T07:55:00.624Z,4.2
2023-02-27T07:56:00.613Z,4.2
2023-02-27T07:57:00.578Z,4.2
2023-02-27T07:58:00.568Z,4.2
2023-02-27T07:59:00.577Z,4.2
2023-02-27T08:00:00.759Z,4.2
2023-02-27T08:01:00.564Z,4.2
2023-02-27T08:02:00.628Z,4.2
2023-02-27T08:03:00.654Z,3.7
2023-02-27T08:04:00.731Z,3.7
2023-02-27T08:05:00.730Z,3.7
2023-02-27T08:06:02.332Z,3.7
2023-02-27T08:07:00.999Z,3.7
2023-02-27T08:08:01.069Z,3.7
2023-02-27T08:09:05.353Z,3.7
2023-02-27T08:10:00.766Z,3.7
2023-02-27T08:11:01.352Z,3.7
2023-02-27T08:12:00.726Z,3.7
2023-02-27T08:13:02.808Z,3.7
2023-02-27T08:14:02.100Z,3.7
2023-02-27T08:15:10.649Z,3.7
2023-02-27T08:16:00.641Z,3.7
2023-02-27T08:17:00.715Z,3.7
2023-02-27T08:18:00.599Z,3.7
2023-02-27T08:19:00.688Z,3.7
2023-02-27T08:20:00.696Z,3.7
2023-02-27T08:21:00.634Z,3.7
2023-02-27T08:22:00.611Z,3.7
2023-02-27T08:23:00.621Z,3.3
2023-02-27T08:24:00.598Z,3.3
2023-02-27T08:25:00.573Z,3.3
2023-02-27T08:26:01.291Z,3.3
2023-02-27T08:27:00.592Z,3.3
2023-02-27T08:28:00.581Z,3.3
2023-02-27T08:29:00.596Z,3.3
2023-02-27T08:30:00.584Z,3.3
2023-02-27T08:31:00.601Z,3.3
2023-02-27T08:32:00.782Z,3.3
2023-02-27T08:33:00.585Z,3.3
2023-02-27T08:34:09.820Z,3.3
2023-02-27T08:35:00.775Z,3.3
2023-02-27T08:36:00.630Z,3.3
2023-02-27T08:37:00.573Z,3.3
2023-02-27T08:38:00.578Z,3.3
2023-02-27T08:39:00.589Z,3.3
2023-02-27T08:40:00.707Z,3.3
2023-02-27T08:41:00.593Z,3.3
2023-02-27T08:42:00.573Z,3.3
2023-02-27T08:43:00.558Z,3.3
2023-02-27T08:44:00.682Z,3.3
2023-02-27T08:45:00.572Z,3.3
2023-02-27T08:46:00.618Z,3.3
2023-02-27T08:47:00.603Z,3.3
2023-02-27T08:48:00.559Z,3.3
2023-02-27T08:49:00.582Z,3.3
2023-02-27T08:50:00.575Z,3.3
2023-02-27T08:51:00.588Z,3.3
2023-02-27T08:52:00.590Z,3.3
2023-02-27T08:53:00.557Z,3.3
2023-02-27T08:54:00.606Z,3.3
2023-02-27T08:56:00.636Z,3.3
2023-02-27T08:57:00.660Z,3.3
2023-02-27T08:58:00.657Z,3.3
2023-02-27T08:59:00.665Z,3.3
2023-02-27T09:00:00.846Z,3.3
2023-02-27T09:01:01.048Z,3.3
2023-02-27T09:02:00.691Z,3.3
2023-02-27T09:03:00.693Z,3.2
2023-02-27T09:04:02.739Z,3.2
2023-02-27T09:05:00.642Z,3.2
2023-02-27T09:06:00.649Z,3.2
2023-02-27T09:07:00.923Z,3.2
2023-02-27T09:08:01.034Z,3.2
2023-02-27T09:09:01.208Z,3.2
2023-02-27T09:10:00.628Z,3.2
2023-02-27T09:11:00.646Z,3.2
2023-02-27T09:12:00.629Z,3.2
2023-02-27T09:13:00.766Z,3.2
2023-02-27T09:14:00.643Z,3.2
2023-02-27T09:15:00.684Z,3.2
2023-02-27T09:16:00.665Z,3.2
2023-02-27T09:17:00.760Z,3.2
2023-02-27T09:18:00.683Z,3.2
2023-02-27T09:19:00.649Z,3.2
2023-02-27T09:20:00.663Z,3.2
2023-02-27T09:21:00.681Z,3.2
2023-02-27T09:22:00.749Z,3.2
2023-02-27T09:23:01.293Z,2.7
2023-02-27T09:24:07.360Z,2.7
2023-02-27T09:25:00.669Z,2.7
2023-02-27T09:26:00.630Z,2.7
2023-02-27T09:27:00.734Z,2.7
2023-02-27T09:28:00.631Z,2.7
2023-02-27T09:29:00.668Z,2.7
2023-02-27T09:30:00.671Z,2.7
2023-02-27T09:31:01.037Z,2.7
2023-02-27T09:32:00.899Z,2.7
2023-02-27T09:33:00.679Z,2.7
2023-02-27T09:34:00.660Z,2.7
2023-02-27T09:35:00.658Z,2.7
2023-02-27T09:36:00.679Z,2.7
2023-02-27T09:37:00.848Z,2.7
2023-02-27T09:38:00.670Z,2.7
2023-02-27T09:39:00.683Z,2.7
2023-02-27T09:40:00.873Z,2.7
2023-02-27T09:41:00.760Z,2.7
2023-02-27T09:42:03.822Z,3.0
2023-02-27T09:43:07.037Z,3.0
2023-02-27T09:44:00.680Z,3.0
2023-02-27T09:45:04.758Z,3.0
2023-02-27T09:46:01.353Z,3.0
2023-02-27T09:47:02.128Z,3.0
2023-02-27T09:48:10.567Z,3.0
2023-02-27T09:49:00.939Z,3.0
2023-02-27T09:50:02.737Z,3.0
2023-02-27T09:51:01.191Z,3.0
2023-02-27T09:52:01.138Z,3.0
2023-02-27T09:53:00.673Z,3.0
2023-02-27T09:54:01.099Z,3.0
2023-02-27T09:55:01.399Z,3.0
2023-02-27T09:56:10.595Z,3.0
2023-02-27T09:57:02.676Z,3.0
2023-02-27T09:58:05.950Z,3.0
2023-02-27T09:59:00.643Z,3.0
2023-02-27T10:00:03.659Z,3.0
2023-02-27T10:01:07.347Z,3.0
2023-02-27T10:02:10.644Z,2.4
2023-02-27T10:03:08.209Z,2.4
2023-02-27T10:04:11.242Z,2.4
2023-02-27T10:05:10.568Z,2.4
2023-02-27T10:06:10.579Z,2.4
2023-02-27T10:07:01.649Z,2.4
2023-02-27T10:08:06.815Z,2.4
2023-02-27T10:09:01.649Z,2.4
2023-02-27T10:10:08.594Z,2.4
2023-02-27T10:11:03.860Z,2.4
2023-02-27T10:12:08.787Z,2.4
2023-02-27T10:13:10.489Z,2.4
2023-02-27T10:14:00.653Z,2.4
2023-02-27T10:15:00.650Z,2.4
2023-02-27T10:16:01.579Z,2.4
2023-02-27T10:17:02.668Z,2.4
2023-02-27T10:18:13.584Z,2.4
2023-02-27T10:19:01.996Z,2.4
2023-02-27T10:20:02.024Z,2.4
2023-02-27T10:21:04.758Z,2.4
2023-02-27T10:22:03.893Z,2.3
2023-02-27T10:23:03.958Z,2.3
2023-02-27T10:24:07.624Z,2.3
2023-02-27T10:25:04.119Z,2.3
2023-02-27T10:26:01.998Z,2.3
2023-02-27T10:27:02.236Z,2.3
2023-02-27T10:28:10.312Z,2.3
2023-02-27T10:29:08.616Z,2.3
2023-02-27T10:30:12.912Z,2.3
2023-02-27T10:31:01.023Z,2.3
2023-02-27T10:32:05.082Z,2.3
2023-02-27T10:33:06.999Z,2.3
2023-02-27T10:34:01.875Z,2.3
2023-02-27T10:35:10.570Z,2.3
2023-02-27T10:36:03.130Z,2.3
2023-02-27T10:37:02.562Z,2.3
2023-02-27T10:38:04.431Z,2.3
2023-02-27T10:39:03.908Z,2.3
2023-02-27T10:40:01.503Z,2.3
2023-02-27T10:41:01.126Z,2.3
2023-02-27T10:42:04.397Z,2.4
2023-02-27T10:43:01.167Z,2.4
2023-02-27T10:44:00.700Z,2.4
2023-02-27T10:45:01.540Z,2.4
2023-02-27T10:46:01.956Z,2.4
2023-02-27T10:47:00.654Z,2.4
2023-02-27T10:48:01.165Z,2.4
2023-02-27T10:49:01.126Z,2.4
2023-02-27T10:50:00.675Z,2.4
2023-02-27T10:51:10.599Z,2.4
2023-02-27T10:52:05.949Z,2.4
2023-02-27T10:53:02.358Z,2.4
2023-02-27T10:54:10.591Z,2.4
2023-02-27T10:55:10.573Z,2.4
2023-02-27T10:56:03.099Z,2.4
2023-02-27T10:57:02.042Z,2.4
2023-02-27T10:58:01.945Z,2.4
2023-02-27T10:59:03.150Z,2.4
2023-02-27T11:00:02.222Z,2.4
2023-02-27T11:01:03.643Z,2.4
2023-02-27T11:02:03.340Z,2.2
2023-02-27T11:03:00.864Z,2.2
2023-02-27T11:04:00.672Z,2.2
2023-02-27T11:05:01.470Z,2.2
2023-02-27T11:06:04.081Z,2.2
2023-02-27T11:07:02.839Z,2.2
2023-02-27T11:08:10.592Z,2.2
2023-02-27T11:09:10.589Z,2.2
2023-02-27T11:10:03.614Z,2.2
2023-02-27T11:11:02.338Z,2.2
2023-02-27T11:12:10.590Z,2.2
2023-02-27T11:13:02.510Z,2.2
2023-02-27T11:14:10.596Z,2.2
2023-02-27T11:15:10.561Z,2.2
2023-02-27T11:16:04.813Z,2.2
2023-02-27T11:17:01.281Z,2.2
2023-02-27T11:18:10.566Z,2.2
2023-02-27T11:19:08.761Z,2.2
2023-02-27T11:20:01.815Z,2.2
2023-02-27T11:21:10.575Z,2.2
2023-02-27T11:22:01.650Z,1.8
2023-02-27T11:23:02.144Z,1.8
2023-02-27T11:24:02.374Z,1.8
2023-02-27T11:25:10.614Z,1.8
2023-02-27T11:26:08.669Z,1.8
2023-02-27T11:27:03.020Z,1.8
2023-02-27T11:28:10.604Z,1.8
2023-02-27T11:29:10.567Z,1.8
2023-02-27T11:30:02.304Z,1.8
2023-02-27T11:31:03.832Z,1.8
2023-02-27T11:32:01.728Z,1.8
2023-02-27T11:33:00.754Z,1.8
2023-02-27T11:34:01.031Z,1.8
2023-02-27T11:35:00.752Z,1.8
2023-02-27T11:36:01.304Z,1.8
2023-02-27T11:37:03.358Z,1.8
2023-02-27T11:38:06.063Z,1.8
2023-02-27T11:39:00.692Z,1.8
2023-02-27T11:40:00.643Z,1.8
2023-02-27T11:41:02.249Z,1.8
2023-02-27T11:42:10.576Z,2.0
2023-02-27T11:43:02.627Z,2.0
2023-02-27T11:44:02.002Z,2.0
2023-02-27T11:45:03.739Z,2.0
2023-02-27T11:46:04.154Z,2.0
2023-02-27T11:47:10.639Z,2.0
2023-02-27T11:48:08.544Z,2.0
2023-02-27T11:49:06.348Z,2.0
2023-02-27T11:50:03.927Z,2.0
2023-02-27T11:51:10.621Z,2.0
2023-02-27T11:52:07.959Z,2.0
2023-02-27T11:53:00.645Z,2.0
2023-02-27T11:54:00.661Z,2.0
2023-02-27T11:55:02.474Z,2.0
2023-02-27T11:56:02.857Z,2.0
2023-02-27T11:57:02.960Z,2.0
2023-02-27T11:58:04.694Z,2.0
2023-02-27T11:59:04.983Z,2.0
2023-02-27T12:00:04.693Z,2.0
2023-02-27T12:01:04.396Z,2.0
2023-02-27T12:02:04.298Z,2.3
2023-02-27T12:03:00.775Z,2.3
2023-02-27T12:04:05.960Z,2.3
2023-02-27T12:05:00.649Z,2.3
2023-02-27T12:06:04.617Z,2.3
2023-02-27T12:07:04.986Z,2.3
2023-02-27T12:08:04.611Z,2.3
2023-02-27T12:09:04.385Z,2.3
2023-02-27T12:10:04.625Z,2.3
2023-02-27T12:11:13.894Z,2.3
2023-02-27T12:12:04.348Z,2.3
2023-02-27T12:13:10.573Z,2.3
2023-02-27T12:14:02.478Z,2.3
2023-02-27T12:15:09.365Z,2.3
2023-02-27T12:16:01.753Z,2.3
2023-02-27T12:17:05.772Z,2.3
2023-02-27T12:18:03.928Z,2.3
2023-02-27T12:19:00.638Z,2.3
2023-02-27T12:20:10.570Z,2.3
2023-02-27T12:21:00.617Z,2.3
2023-02-27T12:22:04.732Z,1.7
2023-02-27T12:23:03.052Z,1.7
2023-02-27T12:24:08.130Z,1.7
2023-02-27T12:25:04.852Z,1.7
2023-02-27T12:26:04.097Z,1.7
2023-02-27T12:27:10.575Z,1.7
2023-02-27T12:28:00.630Z,1.7
2023-02-27T12:29:10.600Z,1.7
2023-02-27T12:30:06.336Z,1.7
2023-02-27T12:31:10.621Z,1.7
2023-02-27T12:32:06.527Z,1.7
2023-02-27T12:33:10.598Z,1.7
2023-02-27T12:34:10.570Z,1.7
2023-02-27T12:35:05.419Z,1.7
2023-02-27T12:36:02.345Z,1.7
2023-02-27T12:37:03.388Z,1.7
2023-02-27T12:38:01.415Z,1.7
2023-02-27T12:39:00.699Z,1.7
2023-02-27T12:40:01.971Z,1.7
2023-02-27T12:41:10.602Z,1.7
2023-02-27T12:42:10.591Z,1.5
2023-02-27T12:43:01.665Z,1.5
2023-02-27T12:44:00.619Z,1.5
2023-02-27T12:45:10.575Z,1.5
2023-02-27T12:46:10.626Z,1.5
2023-02-27T12:47:10.564Z,1.5
2023-02-27T12:48:00.623Z,1.5
2023-02-27T12:49:00.609Z,1.5
2023-02-27T12:50:04.774Z,1.5
2023-02-27T12:51:10.587Z,1.5
2023-02-27T12:52:08.585Z,1.5
2023-02-27T12:53:07.869Z,1.5
2023-02-27T12:54:10.577Z,1.5
2023-02-27T12:55:06.433Z,1.5
2023-02-27T12:56:04.788Z,1.5
2023-02-27T12:57:05.202Z,1.5
2023-02-27T12:58:00.647Z,1.5
2023-02-27T12:59:01.643Z,1.5
2023-02-27T13:00:01.669Z,1.5
2023-02-27T13:01:04.873Z,1.5
2023-02-27T13:02:10.566Z,1.9
2023-02-27T13:03:08.795Z,1.9
2023-02-27T13:04:10.669Z,1.9
2023-02-27T13:05:10.609Z,1.9
2023-02-27T13:06:07.396Z,1.9
2023-02-27T13:07:03.751Z,1.9
2023-02-27T13:08:10.602Z,1.9
2023-02-27T13:09:01.679Z,1.9
2023-02-27T13:10:07.711Z,1.9
2023-02-27T13:11:05.554Z,1.9
2023-02-27T13:12:10.568Z,1.9
2023-02-27T13:13:05.590Z,1.9
2023-02-27T13:14:04.655Z,1.9
2023-02-27T13:15:00.629Z,1.9
2023-02-27T13:16:06.041Z,1.9
2023-02-27T13:17:03.415Z,1.9
2023-02-27T13:18:06.789Z,1.9
2023-02-27T13:19:01.671Z,1.9
2023-02-27T13:20:01.652Z,1.9
2023-02-27T13:21:03.907Z,1.9
2023-02-27T13:22:05.408Z,1.8
2023-02-27T13:23:09.828Z,1.8
2023-02-27T13:24:07.498Z,1.8
2023-02-27T13:25:04.624Z,1.8
2023-02-27T13:26:04.224Z,1.8
2023-02-27T13:27:10.600Z,1.8
2023-02-27T13:28:03.119Z,1.8
2023-02-27T13:29:01.363Z,1.8
2023-02-27T13:30:07.301Z,1.8
2023-02-27T13:31:10.575Z,1.8
2023-02-27T13:32:10.124Z,1.8
2023-02-27T13:33:10.783Z,1.8
2023-02-27T13:34:06.746Z,1.8
2023-02-27T13:35:06.203Z,1.8
2023-02-27T13:36:10.596Z,1.8
2023-02-27T13:37:02.298Z,1.8
2023-02-27T13:38:01.609Z,1.8
2023-02-27T13:39:00.671Z,1.8
2023-02-27T13:40:00.682Z,1.8
2023-02-27T13:41:10.603Z,1.8
2023-02-27T13:42:00.695Z,1.8
2023-02-27T13:43:02.572Z,1.8
2023-02-27T13:44:10.589Z,1.8
2023-02-27T13:45:01.280Z,1.8
2023-02-27T13:46:01.649Z,1.8
2023-02-27T13:47:10.676Z,1.8
2023-02-27T13:48:00.655Z,1.8
2023-02-27T13:49:03.917Z,1.8